sensor_id;sensor_type;location;lat;lon;timestamp;pressure;altitude;pressure_sealevel;temperature;humidity
72570;BME280;60594;50.204;8.844;2023-05-11T00:00:31;99742.56;;;11.78;100.00
72570;BME280;60594;50.204;8.844;2023-05-11T00:03:11;99743.13;;;11.82;100.00
72570;BME280;60594;50.204;8.844;2023-05-11T00:05:38;99752.00;;;11.92;100.00
72570;BME280;60594;50.204;8.844;2023-05-11T00:08:04;99746.50;;;11.84;99.94
72570;BME280;60594;50.204;8.844;2023-05-11T00:10:31;99755.63;;;11.72;100.00
72570;BME280;60594;50.204;8.844;2023-05-11T00:12:57;99758.50;;;11.12;100.00
72570;BME280;60594;50.204;8.844;2023-05-11T00:15:24;99743.75;;;10.98;100.00
72570;BME280;60594;50.204;8.844;2023-05-11T00:17:50;99748.97;;;11.19;100.00
72570;BME280;60594;50.204;8.844;2023-05-11T00:20:17;99742.38;;;11.23;100.00
72570;BME280;60594;50.204;8.844;2023-05-11T00:22:43;99754.88;;;11.32;100.00
72570;BME280;60594;50.204;8.844;2023-05-11T00:25:10;99754.72;;;11.24;100.00
72570;BME280;60594;50.204;8.844;2023-05-11T00:27:36;99750.00;;;11.37;100.00
72570;BME280;60594;50.204;8.844;2023-05-11T00:30:04;99745.19;;;11.40;100.00
72570;BME280;60594;50.204;8.844;2023-05-11T00:32:31;99756.47;;;11.53;100.00
72570;BME280;60594;50.204;8.844;2023-05-11T00:34:58;99745.78;;;11.53;100.00
72570;BME280;60594;50.204;8.844;2023-05-11T00:37:25;99731.88;;;11.50;100.00
72570;BME280;60594;50.204;8.844;2023-05-11T00:39:53;99748.88;;;11.58;100.00
72570;BME280;60594;50.204;8.844;2023-05-11T00:42:22;99737.66;;;11.55;100.00
72570;BME280;60594;50.204;8.844;2023-05-11T00:44:49;99750.44;;;11.61;100.00
72570;BME280;60594;50.204;8.844;2023-05-11T00:47:16;99738.47;;;11.55;100.00
72570;BME280;60594;50.204;8.844;2023-05-11T00:49:44;99737.06;;;11.51;100.00
72570;BME280;60594;50.204;8.844;2023-05-11T00:52:11;99746.19;;;11.58;100.00
72570;BME280;60594;50.204;8.844;2023-05-11T00:54:45;99745.22;;;11.59;100.00
72570;BME280;60594;50.204;8.844;2023-05-11T00:57:23;99753.47;;;11.56;100.00
72570;BME280;60594;50.204;8.844;2023-05-11T00:59:53;99748.59;;;11.52;100.00
72570;BME280;60594;50.204;8.844;2023-05-11T01:02:25;99741.97;;;11.37;100.00
72570;BME280;60594;50.204;8.844;2023-05-11T01:04:56;99750.94;;;11.45;100.00
72570;BME280;60594;50.204;8.844;2023-05-11T01:07:44;99741.53;;;11.51;100.00
72570;BME280;60594;50.204;8.844;2023-05-11T01:10:20;99738.19;;;11.49;100.00
72570;BME280;60594;50.204;8.844;2023-05-11T01:12:57;99745.47;;;11.56;100.00
72570;BME280;60594;50.204;8.844;2023-05-11T01:18:10;99733.41;;;11.52;100.00
72570;BME280;60594;50.204;8.844;2023-05-11T01:20:41;99741.44;;;11.62;100.00
72570;BME280;60594;50.204;8.844;2023-05-11T01:23:19;99736.09;;;11.62;100.00
72570;BME280;60594;50.204;8.844;2023-05-11T01:26:18;99728.66;;;11.56;100.00
72570;BME280;60594;50.204;8.844;2023-05-11T01:31:39;99739.31;;;11.56;100.00
72570;BME280;60594;50.204;8.844;2023-05-11T01:34:13;99739.47;;;11.54;100.00
72570;BME280;60594;50.204;8.844;2023-05-11T01:36:50;99730.19;;;11.49;100.00
72570;BME280;60594;50.204;8.844;2023-05-11T01:39:22;99735.66;;;11.57;100.00
72570;BME280;60594;50.204;8.844;2023-05-11T01:41:52;99727.25;;;11.52;100.00
72570;BME280;60594;50.204;8.844;2023-05-11T01:44:22;99733.25;;;11.54;100.00
72570;BME280;60594;50.204;8.844;2023-05-11T01:46:51;99730.72;;;11.33;100.00
72570;BME280;60594;50.204;8.844;2023-05-11T01:49:18;99733.25;;;11.44;100.00
72570;BME280;60594;50.204;8.844;2023-05-11T01:51:48;99737.34;;;11.48;100.00
72570;BME280;60594;50.204;8.844;2023-05-11T01:54:17;99741.00;;;11.47;100.00
72570;BME280;60594;50.204;8.844;2023-05-11T01:56:46;99735.78;;;11.46;100.00
72570;BME280;60594;50.204;8.844;2023-05-11T01:59:15;99740.00;;;11.48;100.00
72570;BME280;60594;50.204;8.844;2023-05-11T02:01:42;99736.06;;;11.43;100.00
72570;BME280;60594;50.204;8.844;2023-05-11T02:04:10;99754.34;;;11.47;100.00
72570;BME280;60594;50.204;8.844;2023-05-11T02:06:38;99746.31;;;11.38;100.00
72570;BME280;60594;50.204;8.844;2023-05-11T02:09:06;99748.13;;;11.37;100.00
72570;BME280;60594;50.204;8.844;2023-05-11T02:11:36;99752.06;;;11.24;100.00
72570;BME280;60594;50.204;8.844;2023-05-11T02:14:04;99755.97;;;10.61;100.00
72570;BME280;60594;50.204;8.844;2023-05-11T02:16:33;99748.81;;;10.71;100.00
72570;BME280;60594;50.204;8.844;2023-05-11T02:19:00;99761.75;;;10.76;100.00
72570;BME280;60594;50.204;8.844;2023-05-11T02:21:27;99759.72;;;10.89;100.00
72570;BME280;60594;50.204;8.844;2023-05-11T02:23:55;99749.66;;;10.62;100.00
72570;BME280;60594;50.204;8.844;2023-05-11T02:26:23;99754.28;;;10.70;100.00
72570;BME280;60594;50.204;8.844;2023-05-11T02:28:50;99747.44;;;10.77;100.00
72570;BME280;60594;50.204;8.844;2023-05-11T02:31:28;99756.03;;;10.80;100.00
72570;BME280;60594;50.204;8.844;2023-05-11T02:34:05;99748.31;;;10.87;100.00
72570;BME280;60594;50.204;8.844;2023-05-11T02:36:34;99762.66;;;10.95;100.00
72570;BME280;60594;50.204;8.844;2023-05-11T02:39:07;99763.53;;;10.96;100.00
72570;BME280;60594;50.204;8.844;2023-05-11T02:41:38;99752.13;;;10.94;100.00
72570;BME280;60594;50.204;8.844;2023-05-11T02:44:08;99757.19;;;10.97;100.00
72570;BME280;60594;50.204;8.844;2023-05-11T02:46:38;99752.41;;;10.91;100.00
72570;BME280;60594;50.204;8.844;2023-05-11T02:49:09;99751.28;;;10.93;100.00
72570;BME280;60594;50.204;8.844;2023-05-11T02:51:37;99758.88;;;10.98;100.00
72570;BME280;60594;50.204;8.844;2023-05-11T02:54:06;99757.91;;;10.99;100.00
72570;BME280;60594;50.204;8.844;2023-05-11T02:56:38;99754.66;;;10.95;100.00
72570;BME280;60594;50.204;8.844;2023-05-11T02:59:06;99749.19;;;10.87;100.00
72570;BME280;60594;50.204;8.844;2023-05-11T03:01:34;99745.94;;;10.84;100.00
72570;BME280;60594;50.204;8.844;2023-05-11T03:04:03;99753.09;;;10.83;99.77
72570;BME280;60594;50.204;8.844;2023-05-11T03:06:34;99756.31;;;10.87;100.00
72570;BME280;60594;50.204;8.844;2023-05-11T03:09:05;99748.59;;;10.84;100.00
72570;BME280;60594;50.204;8.844;2023-05-11T03:11:54;99750.13;;;10.86;100.00
72570;BME280;60594;50.204;8.844;2023-05-11T03:14:21;99759.50;;;10.81;100.00
72570;BME280;60594;50.204;8.844;2023-05-11T03:16:48;99756.56;;;10.74;100.00
72570;BME280;60594;50.204;8.844;2023-05-11T03:19:16;99757.28;;;10.76;100.00
72570;BME280;60594;50.204;8.844;2023-05-11T03:21:45;99740.84;;;10.71;100.00
72570;BME280;60594;50.204;8.844;2023-05-11T03:24:12;99755.72;;;10.74;100.00
72570;BME280;60594;50.204;8.844;2023-05-11T03:26:40;99758.09;;;10.77;100.00
72570;BME280;60594;50.204;8.844;2023-05-11T03:29:08;99754.03;;;10.73;100.00
72570;BME280;60594;50.204;8.844;2023-05-11T03:31:37;99761.63;;;10.77;100.00
72570;BME280;60594;50.204;8.844;2023-05-11T03:34:03;99762.75;;;10.75;99.75
72570;BME280;60594;50.204;8.844;2023-05-11T03:36:37;99753.59;;;10.68;100.00
72570;BME280;60594;50.204;8.844;2023-05-11T03:39:04;99738.84;;;10.64;100.00
72570;BME280;60594;50.204;8.844;2023-05-11T03:41:33;99752.75;;;10.67;100.00
72570;BME280;60594;50.204;8.844;2023-05-11T03:44:02;99756.81;;;10.71;99.83
72570;BME280;60594;50.204;8.844;2023-05-11T03:46:31;99744.59;;;10.59;100.00
72570;BME280;60594;50.204;8.844;2023-05-11T03:49:00;99742.78;;;10.60;100.00
72570;BME280;60594;50.204;8.844;2023-05-11T03:51:29;99756.66;;;10.63;100.00
72570;BME280;60594;50.204;8.844;2023-05-11T03:53:57;99758.88;;;10.58;100.00
72570;BME280;60594;50.204;8.844;2023-05-11T03:56:25;99747.38;;;10.58;100.00
72570;BME280;60594;50.204;8.844;2023-05-11T03:58:52;99755.97;;;10.61;100.00
72570;BME280;60594;50.204;8.844;2023-05-11T04:01:20;99734.59;;;10.52;100.00
72570;BME280;60594;50.204;8.844;2023-05-11T04:03:52;99754.00;;;10.63;100.00
72570;BME280;60594;50.204;8.844;2023-05-11T04:06:18;99752.19;;;10.64;100.00
72570;BME280;60594;50.204;8.844;2023-05-11T04:08:53;99760.88;;;10.66;100.00
72570;BME280;60594;50.204;8.844;2023-05-11T04:11:20;99745.59;;;10.68;100.00
72570;BME280;60594;50.204;8.844;2023-05-11T04:13:47;99750.81;;;10.69;100.00
72570;BME280;60594;50.204;8.844;2023-05-11T04:16:13;99744.72;;;10.58;100.00
72570;BME280;60594;50.204;8.844;2023-05-11T04:18:42;99756.13;;;10.69;100.00
72570;BME280;60594;50.204;8.844;2023-05-11T04:21:10;99752.31;;;10.62;100.00
72570;BME280;60594;50.204;8.844;2023-05-11T04:23:39;99759.06;;;10.66;100.00
72570;BME280;60594;50.204;8.844;2023-05-11T04:26:07;99764.22;;;10.58;100.00
72570;BME280;60594;50.204;8.844;2023-05-11T04:28:34;99747.72;;;10.43;100.00
72570;BME280;60594;50.204;8.844;2023-05-11T04:31:01;99749.47;;;10.54;100.00
72570;BME280;60594;50.204;8.844;2023-05-11T04:33:29;99758.41;;;10.74;100.00
72570;BME280;60594;50.204;8.844;2023-05-11T04:35:55;99761.56;;;10.58;100.00
72570;BME280;60594;50.204;8.844;2023-05-11T04:38:24;99762.47;;;10.48;100.00
72570;BME280;60594;50.204;8.844;2023-05-11T04:40:50;99757.72;;;10.21;100.00
72570;BME280;60594;50.204;8.844;2023-05-11T04:43:18;99754.19;;;10.00;100.00
72570;BME280;60594;50.204;8.844;2023-05-11T04:45:49;99770.75;;;10.03;100.00
72570;BME280;60594;50.204;8.844;2023-05-11T04:48:19;99768.41;;;9.89;100.00
72570;BME280;60594;50.204;8.844;2023-05-11T04:50:46;99767.63;;;9.98;100.00
72570;BME280;60594;50.204;8.844;2023-05-11T04:53:13;99761.94;;;10.23;100.00
72570;BME280;60594;50.204;8.844;2023-05-11T04:55:40;99751.03;;;10.26;100.00
72570;BME280;60594;50.204;8.844;2023-05-11T04:58:08;99768.16;;;10.64;100.00
72570;BME280;60594;50.204;8.844;2023-05-11T05:00:34;99777.31;;;10.71;100.00
72570;BME280;60594;50.204;8.844;2023-05-11T05:03:01;99763.88;;;10.72;99.14
72570;BME280;60594;50.204;8.844;2023-05-11T05:05:28;99765.53;;;10.73;98.27
72570;BME280;60594;50.204;8.844;2023-05-11T05:07:54;99773.53;;;10.73;98.60
72570;BME280;60594;50.204;8.844;2023-05-11T05:10:22;99775.00;;;10.57;100.00
72570;BME280;60594;50.204;8.844;2023-05-11T05:12:51;99780.56;;;10.44;100.00
72570;BME280;60594;50.204;8.844;2023-05-11T05:15:18;99784.53;;;10.29;100.00
72570;BME280;60594;50.204;8.844;2023-05-11T05:17:45;99773.53;;;10.02;100.00
72570;BME280;60594;50.204;8.844;2023-05-11T05:20:12;99775.66;;;9.87;100.00
72570;BME280;60594;50.204;8.844;2023-05-11T05:22:39;99785.00;;;9.82;100.00
72570;BME280;60594;50.204;8.844;2023-05-11T05:25:06;99791.69;;;9.97;100.00
72570;BME280;60594;50.204;8.844;2023-05-11T05:27:33;99787.88;;;10.31;100.00
72570;BME280;60594;50.204;8.844;2023-05-11T05:30:03;99774.69;;;10.50;100.00
72570;BME280;60594;50.204;8.844;2023-05-11T05:32:29;99799.41;;;10.62;100.00
72570;BME280;60594;50.204;8.844;2023-05-11T05:34:56;99782.69;;;10.80;100.00
72570;BME280;60594;50.204;8.844;2023-05-11T05:37:22;99788.00;;;10.80;99.87
72570;BME280;60594;50.204;8.844;2023-05-11T05:39:49;99785.75;;;10.46;100.00
72570;BME280;60594;50.204;8.844;2023-05-11T05:42:16;99792.28;;;10.62;100.00
72570;BME280;60594;50.204;8.844;2023-05-11T05:44:43;99793.19;;;10.72;100.00
72570;BME280;60594;50.204;8.844;2023-05-11T05:47:09;99784.88;;;10.75;100.00
72570;BME280;60594;50.204;8.844;2023-05-11T05:49:37;99807.31;;;11.03;100.00
72570;BME280;60594;50.204;8.844;2023-05-11T05:52:06;99807.78;;;11.17;100.00
72570;BME280;60594;50.204;8.844;2023-05-11T05:54:32;99808.50;;;11.29;98.59
72570;BME280;60594;50.204;8.844;2023-05-11T05:57:00;99815.91;;;11.16;98.96
72570;BME280;60594;50.204;8.844;2023-05-11T05:59:28;99798.47;;;11.02;98.19
72570;BME280;60594;50.204;8.844;2023-05-11T06:01:57;99810.44;;;11.08;97.47
72570;BME280;60594;50.204;8.844;2023-05-11T06:04:24;99816.56;;;10.99;98.17
72570;BME280;60594;50.204;8.844;2023-05-11T06:06:52;99784.63;;;10.48;100.00
72570;BME280;60594;50.204;8.844;2023-05-11T06:09:22;99815.56;;;10.39;100.00
72570;BME280;60594;50.204;8.844;2023-05-11T06:12:08;99810.03;;;10.52;100.00
72570;BME280;60594;50.204;8.844;2023-05-11T06:14:38;99815.81;;;10.87;100.00
72570;BME280;60594;50.204;8.844;2023-05-11T06:17:07;99811.88;;;10.82;100.00
72570;BME280;60594;50.204;8.844;2023-05-11T06:19:34;99800.56;;;10.99;99.61
72570;BME280;60594;50.204;8.844;2023-05-11T06:22:01;99816.53;;;10.89;100.00
72570;BME280;60594;50.204;8.844;2023-05-11T06:24:30;99820.78;;;11.01;100.00
72570;BME280;60594;50.204;8.844;2023-05-11T06:26:58;99819.13;;;11.10;100.00
72570;BME280;60594;50.204;8.844;2023-05-11T06:29:25;99812.84;;;11.20;99.41
72570;BME280;60594;50.204;8.844;2023-05-11T06:31:52;99825.75;;;11.25;100.00
72570;BME280;60594;50.204;8.844;2023-05-11T06:34:21;99827.91;;;11.40;99.35
72570;BME280;60594;50.204;8.844;2023-05-11T06:36:47;99817.38;;;11.48;99.18
72570;BME280;60594;50.204;8.844;2023-05-11T06:39:14;99817.00;;;11.53;98.65
72570;BME280;60594;50.204;8.844;2023-05-11T06:41:41;99821.78;;;11.59;98.96
72570;BME280;60594;50.204;8.844;2023-05-11T06:44:08;99809.84;;;11.53;99.37
72570;BME280;60594;50.204;8.844;2023-05-11T06:46:37;99814.88;;;11.56;98.42
72570;BME280;60594;50.204;8.844;2023-05-11T06:49:04;99813.22;;;11.65;98.35
72570;BME280;60594;50.204;8.844;2023-05-11T06:51:32;99819.69;;;11.72;98.18
72570;BME280;60594;50.204;8.844;2023-05-11T06:53:59;99827.72;;;11.62;98.03
72570;BME280;60594;50.204;8.844;2023-05-11T06:56:26;99823.63;;;11.68;97.48
72570;BME280;60594;50.204;8.844;2023-05-11T06:58:54;99821.09;;;11.66;98.88
72570;BME280;60594;50.204;8.844;2023-05-11T07:01:21;99810.00;;;11.61;100.00
72570;BME280;60594;50.204;8.844;2023-05-11T07:03:53;99819.16;;;11.78;100.00
72570;BME280;60594;50.204;8.844;2023-05-11T07:06:19;99816.22;;;11.71;100.00
72570;BME280;60594;50.204;8.844;2023-05-11T07:08:46;99820.06;;;11.48;100.00
72570;BME280;60594;50.204;8.844;2023-05-11T07:11:13;99822.22;;;11.64;100.00
72570;BME280;60594;50.204;8.844;2023-05-11T07:13:40;99819.69;;;11.72;100.00
72570;BME280;60594;50.204;8.844;2023-05-11T07:16:07;99827.94;;;11.59;100.00
72570;BME280;60594;50.204;8.844;2023-05-11T07:18:34;99813.53;;;11.71;100.00
72570;BME280;60594;50.204;8.844;2023-05-11T07:21:00;99821.25;;;11.74;100.00
72570;BME280;60594;50.204;8.844;2023-05-11T07:23:27;99825.06;;;11.91;100.00
72570;BME280;60594;50.204;8.844;2023-05-11T07:25:54;99821.97;;;12.05;100.00
72570;BME280;60594;50.204;8.844;2023-05-11T07:28:23;99837.00;;;12.06;99.72
72570;BME280;60594;50.204;8.844;2023-05-11T07:30:50;99823.38;;;11.99;100.00
72570;BME280;60594;50.204;8.844;2023-05-11T07:33:16;99826.63;;;12.03;100.00
72570;BME280;60594;50.204;8.844;2023-05-11T07:35:43;99819.56;;;12.11;98.99
72570;BME280;60594;50.204;8.844;2023-05-11T07:38:09;99829.56;;;11.90;100.00
72570;BME280;60594;50.204;8.844;2023-05-11T07:40:38;99828.31;;;11.94;100.00
72570;BME280;60594;50.204;8.844;2023-05-11T07:43:05;99834.91;;;11.90;100.00
72570;BME280;60594;50.204;8.844;2023-05-11T07:45:32;99829.81;;;12.16;100.00
72570;BME280;60594;50.204;8.844;2023-05-11T07:47:58;99828.84;;;11.98;100.00
72570;BME280;60594;50.204;8.844;2023-05-11T07:50:25;99834.34;;;12.25;100.00
72570;BME280;60594;50.204;8.844;2023-05-11T07:52:52;99823.34;;;12.18;100.00
72570;BME280;60594;50.204;8.844;2023-05-11T07:55:19;99820.69;;;11.90;100.00
72570;BME280;60594;50.204;8.844;2023-05-11T07:57:51;99811.00;;;11.98;100.00
72570;BME280;60594;50.204;8.844;2023-05-11T08:00:19;99831.34;;;12.37;100.00
72570;BME280;60594;50.204;8.844;2023-05-11T08:02:47;99829.19;;;12.60;99.92
72570;BME280;60594;50.204;8.844;2023-05-11T08:05:13;99820.25;;;12.23;100.00
72570;BME280;60594;50.204;8.844;2023-05-11T08:07:40;99822.94;;;12.23;100.00
72570;BME280;60594;50.204;8.844;2023-05-11T08:10:07;99823.28;;;12.47;100.00
72570;BME280;60594;50.204;8.844;2023-05-11T08:12:35;99826.16;;;12.45;100.00
72570;BME280;60594;50.204;8.844;2023-05-11T08:15:03;99831.31;;;12.56;100.00
72570;BME280;60594;50.204;8.844;2023-05-11T08:17:31;99825.63;;;12.69;99.93
72570;BME280;60594;50.204;8.844;2023-05-11T08:20:03;99826.59;;;12.77;96.86
72570;BME280;60594;50.204;8.844;2023-05-11T08:22:30;99827.03;;;12.82;98.10
72570;BME280;60594;50.204;8.844;2023-05-11T08:24:56;99826.75;;;12.76;98.69
72570;BME280;60594;50.204;8.844;2023-05-11T08:27:23;99834.59;;;12.87;98.35
72570;BME280;60594;50.204;8.844;2023-05-11T08:29:50;99829.09;;;12.88;98.58
72570;BME280;60594;50.204;8.844;2023-05-11T08:32:17;99823.38;;;12.74;98.14
72570;BME280;60594;50.204;8.844;2023-05-11T08:34:43;99829.44;;;12.66;99.36
72570;BME280;60594;50.204;8.844;2023-05-11T08:37:11;99822.38;;;12.75;98.00
72570;BME280;60594;50.204;8.844;2023-05-11T08:39:38;99835.66;;;12.67;99.34
72570;BME280;60594;50.204;8.844;2023-05-11T08:42:05;99826.69;;;12.85;98.64
72570;BME280;60594;50.204;8.844;2023-05-11T08:44:34;99826.25;;;12.99;97.66
72570;BME280;60594;50.204;8.844;2023-05-11T08:47:01;99821.78;;;13.00;96.30
72570;BME280;60594;50.204;8.844;2023-05-11T08:49:28;99824.84;;;12.95;97.11
72570;BME280;60594;50.204;8.844;2023-05-11T08:51:54;99830.34;;;12.94;98.31
72570;BME280;60594;50.204;8.844;2023-05-11T08:54:21;99835.03;;;12.82;100.00
72570;BME280;60594;50.204;8.844;2023-05-11T08:56:49;99834.63;;;12.77;100.00
72570;BME280;60594;50.204;8.844;2023-05-11T08:59:17;99827.13;;;13.00;99.70
72570;BME280;60594;50.204;8.844;2023-05-11T09:01:44;99828.59;;;13.12;95.18
72570;BME280;60594;50.204;8.844;2023-05-11T09:04:12;99826.63;;;13.14;95.86
72570;BME280;60594;50.204;8.844;2023-05-11T09:06:40;99817.72;;;12.86;99.51
72570;BME280;60594;50.204;8.844;2023-05-11T09:09:08;99833.56;;;13.07;97.01
72570;BME280;60594;50.204;8.844;2023-05-11T09:11:35;99828.50;;;13.04;97.56
72570;BME280;60594;50.204;8.844;2023-05-11T09:14:02;99835.63;;;13.13;96.05
72570;BME280;60594;50.204;8.844;2023-05-11T09:16:28;99845.28;;;13.33;96.30
72570;BME280;60594;50.204;8.844;2023-05-11T09:18:58;99840.75;;;13.33;97.39
72570;BME280;60594;50.204;8.844;2023-05-11T09:21:26;99839.41;;;13.20;97.36
72570;BME280;60594;50.204;8.844;2023-05-11T09:23:55;99847.94;;;13.33;94.92
72570;BME280;60594;50.204;8.844;2023-05-11T09:26:26;99833.41;;;13.35;96.11
72570;BME280;60594;50.204;8.844;2023-05-11T09:28:56;99838.72;;;13.45;93.03
72570;BME280;60594;50.204;8.844;2023-05-11T09:34:22;99842.38;;;13.44;93.56
72570;BME280;60594;50.204;8.844;2023-05-11T09:36:53;99840.72;;;13.43;93.53
72570;BME280;60594;50.204;8.844;2023-05-11T09:39:35;99843.63;;;13.49;94.16
72570;BME280;60594;50.204;8.844;2023-05-11T09:42:15;99837.84;;;13.54;95.37
72570;BME280;60594;50.204;8.844;2023-05-11T09:44:42;99844.09;;;13.62;93.49
72570;BME280;60594;50.204;8.844;2023-05-11T09:47:11;99839.22;;;13.58;94.32
72570;BME280;60594;50.204;8.844;2023-05-11T09:49:41;99837.84;;;13.72;94.62
72570;BME280;60594;50.204;8.844;2023-05-11T09:52:14;99838.78;;;13.35;95.98
72570;BME280;60594;50.204;8.844;2023-05-11T09:54:42;99830.59;;;13.37;97.06
72570;BME280;60594;50.204;8.844;2023-05-11T09:57:26;99820.19;;;13.51;96.34
72570;BME280;60594;50.204;8.844;2023-05-11T09:59:54;99831.03;;;13.77;96.63
72570;BME280;60594;50.204;8.844;2023-05-11T10:02:31;99826.84;;;13.92;95.79
72570;BME280;60594;50.204;8.844;2023-05-11T10:05:00;99818.00;;;14.00;94.36
72570;BME280;60594;50.204;8.844;2023-05-11T10:07:31;99821.09;;;14.05;95.15
72570;BME280;60594;50.204;8.844;2023-05-11T10:10:05;99819.69;;;14.36;91.55
72570;BME280;60594;50.204;8.844;2023-05-11T10:12:33;99818.44;;;14.48;89.77
72570;BME280;60594;50.204;8.844;2023-05-11T10:15:05;99816.03;;;14.62;87.35
72570;BME280;60594;50.204;8.844;2023-05-11T10:17:32;99817.09;;;14.69;91.67
72570;BME280;60594;50.204;8.844;2023-05-11T10:20:00;99825.84;;;14.79;87.32
72570;BME280;60594;50.204;8.844;2023-05-11T10:22:27;99813.28;;;14.80;85.54
72570;BME280;60594;50.204;8.844;2023-05-11T10:24:58;99809.44;;;14.82;85.07
72570;BME280;60594;50.204;8.844;2023-05-11T10:27:25;99809.97;;;14.86;87.52
72570;BME280;60594;50.204;8.844;2023-05-11T10:29:52;99812.34;;;14.89;86.96
72570;BME280;60594;50.204;8.844;2023-05-11T10:32:19;99804.69;;;15.02;85.91
72570;BME280;60594;50.204;8.844;2023-05-11T10:34:46;99804.69;;;15.02;86.01
72570;BME280;60594;50.204;8.844;2023-05-11T10:37:16;99817.81;;;15.13;83.04
72570;BME280;60594;50.204;8.844;2023-05-11T10:39:44;99809.47;;;15.16;84.48
72570;BME280;60594;50.204;8.844;2023-05-11T10:42:36;99815.16;;;15.21;82.17
72570;BME280;60594;50.204;8.844;2023-05-11T10:45:15;99801.09;;;15.19;83.54
72570;BME280;60594;50.204;8.844;2023-05-11T10:50:46;99806.63;;;15.17;86.64
72570;BME280;60594;50.204;8.844;2023-05-11T10:53:47;99811.50;;;15.22;86.83
72570;BME280;60594;50.204;8.844;2023-05-11T11:02:02;99813.16;;;15.15;83.03
72570;BME280;60594;50.204;8.844;2023-05-11T11:04:50;99802.72;;;15.12;82.81
72570;BME280;60594;50.204;8.844;2023-05-11T11:07:17;99798.34;;;14.77;84.57
72570;BME280;60594;50.204;8.844;2023-05-11T11:09:56;99798.47;;;14.68;84.44
72570;BME280;60594;50.204;8.844;2023-05-11T11:12:23;99810.75;;;14.78;85.79
72570;BME280;60594;50.204;8.844;2023-05-11T11:19:53;99791.03;;;14.87;88.11
72570;BME280;60594;50.204;8.844;2023-05-11T11:25:07;99788.78;;;15.08;87.38
72570;BME280;60594;50.204;8.844;2023-05-11T11:32:55;99798.09;;;15.30;81.22
72570;BME280;60594;50.204;8.844;2023-05-11T11:38:15;99802.47;;;14.64;87.08
72570;BME280;60594;50.204;8.844;2023-05-11T11:40:49;99795.50;;;14.28;90.54
72570;BME280;60594;50.204;8.844;2023-05-11T11:43:20;99795.72;;;14.17;90.00
72570;BME280;60594;50.204;8.844;2023-05-11T11:48:39;99778.56;;;14.45;89.90
72570;BME280;60594;50.204;8.844;2023-05-11T11:51:09;99796.72;;;14.16;90.90
72570;BME280;60594;50.204;8.844;2023-05-11T12:01:08;99797.94;;;14.04;93.78
72570;BME280;60594;50.204;8.844;2023-05-11T12:03:35;99805.56;;;13.91;95.96
72570;BME280;60594;50.204;8.844;2023-05-11T12:06:06;99803.19;;;13.88;93.84
72570;BME280;60594;50.204;8.844;2023-05-11T12:08:34;99801.28;;;13.80;96.53
72570;BME280;60594;50.204;8.844;2023-05-11T12:11:02;99802.16;;;13.89;95.58
72570;BME280;60594;50.204;8.844;2023-05-11T12:13:29;99795.50;;;13.93;95.98
72570;BME280;60594;50.204;8.844;2023-05-11T12:16:13;99794.91;;;13.99;98.48
72570;BME280;60594;50.204;8.844;2023-05-11T12:18:41;99796.16;;;13.87;96.50
72570;BME280;60594;50.204;8.844;2023-05-11T12:21:20;99802.88;;;13.73;96.63
72570;BME280;60594;50.204;8.844;2023-05-11T12:23:55;99799.34;;;13.73;100.00
72570;BME280;60594;50.204;8.844;2023-05-11T12:26:23;99797.97;;;13.68;100.00
72570;BME280;60594;50.204;8.844;2023-05-11T12:29:05;99790.59;;;13.53;100.00
72570;BME280;60594;50.204;8.844;2023-05-11T12:31:42;99794.72;;;13.47;100.00
72570;BME280;60594;50.204;8.844;2023-05-11T12:34:15;99796.44;;;13.48;100.00
72570;BME280;60594;50.204;8.844;2023-05-11T12:36:46;99797.56;;;13.46;100.00
72570;BME280;60594;50.204;8.844;2023-05-11T12:39:17;99789.47;;;13.55;100.00
72570;BME280;60594;50.204;8.844;2023-05-11T12:41:46;99798.50;;;13.72;100.00
72570;BME280;60594;50.204;8.844;2023-05-11T12:44:14;99793.97;;;13.90;100.00
72570;BME280;60594;50.204;8.844;2023-05-11T12:46:43;99797.44;;;13.65;100.00
72570;BME280;60594;50.204;8.844;2023-05-11T12:49:11;99792.09;;;13.65;100.00
72570;BME280;60594;50.204;8.844;2023-05-11T12:54:32;99784.81;;;13.57;100.00
72570;BME280;60594;50.204;8.844;2023-05-11T12:57:00;99783.66;;;13.77;100.00
72570;BME280;60594;50.204;8.844;2023-05-11T12:59:32;99784.50;;;13.78;100.00
72570;BME280;60594;50.204;8.844;2023-05-11T13:02:20;99783.56;;;13.52;99.04
72570;BME280;60594;50.204;8.844;2023-05-11T13:04:46;99774.25;;;13.56;100.00
72570;BME280;60594;50.204;8.844;2023-05-11T13:07:22;99782.66;;;13.61;100.00
72570;BME280;60594;50.204;8.844;2023-05-11T13:09:57;99777.78;;;13.74;100.00
72570;BME280;60594;50.204;8.844;2023-05-11T13:12:24;99777.78;;;13.74;100.00
72570;BME280;60594;50.204;8.844;2023-05-11T13:15:07;99780.06;;;13.87;96.97
72570;BME280;60594;50.204;8.844;2023-05-11T13:17:36;99775.63;;;13.95;99.88
72570;BME280;60594;50.204;8.844;2023-05-11T13:23:10;99775.81;;;14.19;95.62
72570;BME280;60594;50.204;8.844;2023-05-11T13:28:15;99773.06;;;14.11;95.71
72570;BME280;60594;50.204;8.844;2023-05-11T13:30:42;99768.63;;;14.20;95.15
72570;BME280;60594;50.204;8.844;2023-05-11T13:33:09;99773.34;;;13.83;95.04
72570;BME280;60594;50.204;8.844;2023-05-11T13:35:39;99772.94;;;13.77;99.52
72570;BME280;60594;50.204;8.844;2023-05-11T13:38:08;99769.75;;;13.74;100.00
72570;BME280;60594;50.204;8.844;2023-05-11T13:40:35;99767.28;;;13.81;100.00
72570;BME280;60594;50.204;8.844;2023-05-11T13:43:02;99763.59;;;13.99;100.00
72570;BME280;60594;50.204;8.844;2023-05-11T13:45:29;99762.41;;;14.19;97.96
72570;BME280;60594;50.204;8.844;2023-05-11T13:47:55;99759.81;;;14.27;95.66
72570;BME280;60594;50.204;8.844;2023-05-11T13:50:23;99763.81;;;14.23;96.65
72570;BME280;60594;50.204;8.844;2023-05-11T13:52:50;99766.25;;;14.17;96.98
72570;BME280;60594;50.204;8.844;2023-05-11T13:55:17;99758.50;;;14.14;98.24
72570;BME280;60594;50.204;8.844;2023-05-11T13:57:44;99753.84;;;14.16;100.00